Time;durP1;ratioP1;P1;durP2;ratioP2;P2;SDS_P1;SDS_P2;PMS_P1;PMS_P2;Temp;Humidity;BMP_temperature;BMP_pressure;BME280_temperature;BME280_humidity;BME280_pressure;Samples;Min_cycle;Max_cycle;Signal;HPM_P1;HPM_P2
2023/01/28 00:01:28;;;;;;;8.85;6.85;;;;;;;;;;5124130;27;20520;-73
2023/01/28 00:03:55;;;;;;;8.13;6.25;;;;;;;;;;5110265;27;20132;-72
2023/01/28 00:06:21;;;;;;;10.50;6.53;;;;;;;;;;5121367;27;20063;-73
2023/01/28 00:08:48;;;;;;;9.15;6.07;;;;;;;;;;5110213;27;20139;-71
2023/01/28 00:11:14;;;;;;;8.48;6.38;;;;;;;;;;5120356;27;20158;-72
2023/01/28 00:13:41;;;;;;;7.78;5.88;;;;;;;;;;5127326;27;20802;-72
2023/01/28 00:16:08;;;;;;;8.55;6.20;;;;;;;;;;5113598;27;20671;-71
2023/01/28 00:18:35;;;;;;;8.23;6.50;;;;;;;;;;5114064;27;20059;-71
2023/01/28 00:21:03;;;;;;;8.98;6.63;;;;;;;;;;5124366;27;20145;-72
2023/01/28 00:23:34;;;;;;;10.60;7.00;;;;;;;;;;5122080;27;20460;-73
2023/01/28 00:26:02;;;;;;;12.65;6.75;;;;;;;;;;5116745;27;20634;-72
2023/01/28 00:28:29;;;;;;;9.40;6.82;;;;;;;;;;5122193;27;20142;-73
2023/01/28 00:30:55;;;;;;;8.65;6.72;;;;;;;;;;5119032;27;20110;-72
2023/01/28 00:33:22;;;;;;;9.23;6.60;;;;;;;;;;5130291;27;20146;-70
2023/01/28 00:35:59;;;;;;;8.65;6.65;;;;;;;;;;5126233;27;20055;-72
2023/01/28 00:38:26;;;;;;;7.93;6.18;;;;;;;;;;5110114;27;20052;-72
2023/01/28 00:40:53;;;;;;;8.70;6.38;;;;;;;;;;5118231;27;20109;-73
2023/01/28 00:43:19;;;;;;;9.60;6.82;;;;;;;;;;5109798;27;20205;-73
2023/01/28 00:45:46;;;;;;;8.52;6.45;;;;;;;;;;5123066;27;20047;-72
2023/01/28 00:48:15;;;;;;;11.95;6.90;;;;;;;;;;5109740;27;20059;-73
2023/01/28 00:50:43;;;;;;;9.75;7.47;;;;;;;;;;5110095;27;20109;-73
2023/01/28 00:53:09;;;;;;;8.68;6.60;;;;;;;;;;5102692;27;20047;-72
2023/01/28 00:55:37;;;;;;;8.90;6.63;;;;;;;;;;5117004;27;20051;-73
2023/01/28 00:58:03;;;;;;;9.88;6.95;;;;;;;;;;5135621;27;20039;-74
2023/01/28 01:00:29;;;;;;;8.95;5.97;;;;;;;;;;5117560;27;20052;-70
2023/01/28 01:02:56;;;;;;;9.35;6.80;;;;;;;;;;5108659;27;20056;-71
2023/01/28 01:05:22;;;;;;;8.30;6.32;;;;;;;;;;5119277;27;20052;-73
2023/01/28 01:07:49;;;;;;;8.90;6.68;;;;;;;;;;5126082;27;20051;-71
2023/01/28 01:10:16;;;;;;;9.10;6.65;;;;;;;;;;5112540;27;20072;-72
2023/01/28 01:12:45;;;;;;;7.35;6.10;;;;;;;;;;5136548;27;20144;-72
2023/01/28 01:15:11;;;;;;;7.82;6.03;;;;;;;;;;5110134;27;20502;-72
2023/01/28 01:17:39;;;;;;;7.63;5.97;;;;;;;;;;5126446;27;20044;-69
2023/01/28 01:20:10;;;;;;;8.98;6.63;;;;;;;;;;5109340;27;20060;-72
2023/01/28 01:22:37;;;;;;;9.70;7.07;;;;;;;;;;5105465;27;20083;-72
2023/01/28 01:25:04;;;;;;;8.80;6.47;;;;;;;;;;5106870;27;20102;-73
2023/01/28 01:27:31;;;;;;;8.90;6.30;;;;;;;;;;5112005;27;20562;-73
2023/01/28 01:29:57;;;;;;;8.48;6.30;;;;;;;;;;5124489;27;20532;-71
2023/01/28 01:32:27;;;;;;;8.07;5.97;;;;;;;;;;5120651;27;20056;-69
2023/01/28 01:34:54;;;;;;;10.25;7.38;;;;;;;;;;5121564;27;20190;-73
2023/01/28 01:37:20;;;;;;;9.45;6.90;;;;;;;;;;5106863;27;20047;-72
2023/01/28 01:39:46;;;;;;;9.00;6.60;;;;;;;;;;5111774;27;20105;-70
2023/01/28 01:42:13;;;;;;;10.05;6.68;;;;;;;;;;5108016;27;20060;-73
2023/01/28 01:44:52;;;;;;;9.20;7.20;;;;;;;;;;5109728;27;20044;-73
2023/01/28 01:47:22;;;;;;;8.45;6.28;;;;;;;;;;5108890;27;20055;-71
2023/01/28 01:49:48;;;;;;;9.52;7.38;;;;;;;;;;5109674;27;20055;-70
2023/01/28 01:52:18;;;;;;;10.23;6.85;;;;;;;;;;5108708;27;20106;-73
2023/01/28 01:54:46;;;;;;;9.10;6.95;;;;;;;;;;5112873;27;20167;-71
2023/01/28 01:57:14;;;;;;;9.90;6.43;;;;;;;;;;5128683;27;20142;-71
2023/01/28 01:59:42;;;;;;;9.27;6.68;;;;;;;;;;5125536;27;20051;-71
2023/01/28 02:02:09;;;;;;;12.77;7.25;;;;;;;;;;5109153;27;20059;-72
2023/01/28 02:04:38;;;;;;;9.00;6.45;;;;;;;;;;5116534;27;20058;-72
2023/01/28 02:07:05;;;;;;;8.85;6.43;;;;;;;;;;5122559;27;20097;-72
2023/01/28 02:09:34;;;;;;;8.32;6.10;;;;;;;;;;5108631;27;20048;-70
2023/01/28 02:12:12;;;;;;;9.68;7.38;;;;;;;;;;5111600;27;20059;-71
2023/01/28 02:14:47;;;;;;;10.70;6.80;;;;;;;;;;5110564;27;20127;-72
2023/01/28 02:17:13;;;;;;;9.88;6.95;;;;;;;;;;5122584;27;20135;-73
2023/01/28 02:19:47;;;;;;;8.55;6.10;;;;;;;;;;5127130;27;20063;-69
2023/01/28 02:22:22;;;;;;;10.75;6.55;;;;;;;;;;5108520;27;20170;-73
2023/01/28 02:24:48;;;;;;;9.27;6.75;;;;;;;;;;5108890;27;20048;-72
2023/01/28 02:27:22;;;;;;;9.95;7.30;;;;;;;;;;5113770;27;20138;-73
2023/01/28 02:30:07;;;;;;;9.52;6.55;;;;;;;;;;5096009;27;20424;-73
2023/01/28 02:32:33;;;;;;;8.18;5.85;;;;;;;;;;5121754;27;20044;-73
2023/01/28 02:35:12;;;;;;;9.80;6.88;;;;;;;;;;5107529;27;20129;-69
2023/01/28 02:37:44;;;;;;;9.65;6.35;;;;;;;;;;5108030;27;20522;-73
2023/01/28 02:40:13;;;;;;;11.32;6.65;;;;;;;;;;5108206;27;20510;-73
2023/01/28 02:42:40;;;;;;;10.52;6.85;;;;;;;;;;5107504;27;20079;-73
2023/01/28 02:47:56;;;;;;;9.18;6.75;;;;;;;;;;5119267;27;20102;-70
2023/01/28 02:48:17;;;;;;;9.35;6.63;;;;;;;;;;5115861;27;20573;-71
2023/01/28 02:50:53;;;;;;;9.02;6.93;;;;;;;;;;5112030;27;20049;-70
2023/01/28 02:53:42;;;;;;;10.60;6.65;;;;;;;;;;5108281;27;20056;-71
2023/01/28 02:56:14;;;;;;;9.73;6.43;;;;;;;;;;5117044;27;20067;-72
2023/01/28 02:58:55;;;;;;;8.93;6.30;;;;;;;;;;5119893;27;20148;-72
2023/01/28 03:01:32;;;;;;;8.60;5.93;;;;;;;;;;5119824;27;20055;-73
2023/01/28 03:03:59;;;;;;;9.85;7.10;;;;;;;;;;5117738;27;20835;-72
2023/01/28 03:06:35;;;;;;;10.25;7.07;;;;;;;;;;5125040;27;20048;-68
2023/01/28 03:09:21;;;;;;;10.27;7.30;;;;;;;;;;5113551;27;20059;-72
2023/01/28 03:37:25;;;;;;;8.80;6.32;;;;;;;;;;5110467;27;20050;-71
2023/01/28 03:39:52;;;;;;;9.07;6.32;;;;;;;;;;5123275;27;20047;-71
2023/01/28 03:42:18;;;;;;;9.57;7.20;;;;;;;;;;5107494;27;20569;-71
2023/01/28 03:44:51;;;;;;;9.38;7.00;;;;;;;;;;5120959;27;20052;-73
2023/01/28 03:47:19;;;;;;;8.27;6.35;;;;;;;;;;5112645;27;20134;-72
2023/01/28 03:49:50;;;;;;;10.95;6.22;;;;;;;;;;5107496;27;20096;-73
2023/01/28 03:52:18;;;;;;;7.78;5.93;;;;;;;;;;5120447;27;20445;-72
2023/01/28 03:54:47;;;;;;;8.18;6.10;;;;;;;;;;5126669;27;20235;-72
2023/01/28 03:57:17;;;;;;;12.10;7.55;;;;;;;;;;5112439;27;20154;-72
2023/01/28 03:59:43;;;;;;;10.63;6.95;;;;;;;;;;5116603;27;20515;-71
2023/01/28 04:02:11;;;;;;;7.63;5.75;;;;;;;;;;5116995;27;20056;-73
2023/01/28 04:04:37;;;;;;;9.40;6.95;;;;;;;;;;5115240;27;20416;-73
2023/01/28 04:07:05;;;;;;;9.50;6.38;;;;;;;;;;5114900;27;21006;-73
2023/01/28 04:09:31;;;;;;;10.73;7.07;;;;;;;;;;5107582;27;20044;-73
2023/01/28 04:11:58;;;;;;;10.65;6.68;;;;;;;;;;5123643;27;20051;-72
2023/01/28 04:14:24;;;;;;;9.52;6.50;;;;;;;;;;5122957;27;20540;-69
2023/01/28 04:16:53;;;;;;;9.18;6.10;;;;;;;;;;5114908;27;20055;-69
2023/01/28 04:19:20;;;;;;;9.32;6.70;;;;;;;;;;5114071;27;20410;-73
2023/01/28 04:21:47;;;;;;;8.35;6.32;;;;;;;;;;5115989;27;20513;-69
2023/01/28 04:24:15;;;;;;;8.30;5.70;;;;;;;;;;5113164;27;21861;-73
2023/01/28 04:26:41;;;;;;;7.47;5.78;;;;;;;;;;5121730;27;20051;-72
2023/01/28 04:29:07;;;;;;;7.43;5.72;;;;;;;;;;5120614;27;20046;-71
2023/01/28 04:31:34;;;;;;;8.25;5.72;;;;;;;;;;5128397;27;20084;-72
2023/01/28 04:34:00;;;;;;;8.82;6.20;;;;;;;;;;5107335;27;20536;-73
2023/01/28 04:36:26;;;;;;;7.72;5.90;;;;;;;;;;5106263;27;20083;-71
2023/01/28 04:38:53;;;;;;;8.23;5.40;;;;;;;;;;5117777;27;20047;-72
2023/01/28 04:41:19;;;;;;;9.63;6.22;;;;;;;;;;5106563;27;20070;-72
2023/01/28 04:43:48;;;;;;;8.70;6.03;;;;;;;;;;5106432;27;20063;-71
2023/01/28 04:46:14;;;;;;;9.18;6.38;;;;;;;;;;5110116;27;20051;-73
2023/01/28 04:48:41;;;;;;;8.45;6.00;;;;;;;;;;5106745;27;20056;-72
2023/01/28 04:51:07;;;;;;;8.85;5.88;;;;;;;;;;5117341;27;20052;-73
2023/01/28 04:53:34;;;;;;;9.65;6.40;;;;;;;;;;5106227;27;20116;-72
2023/01/28 04:56:00;;;;;;;9.70;6.63;;;;;;;;;;5107924;27;20048;-71
2023/01/28 04:58:26;;;;;;;9.50;6.18;;;;;;;;;;5106084;28;20079;-72
2023/01/28 05:00:54;;;;;;;9.25;6.50;;;;;;;;;;5114275;27;20047;-69
2023/01/28 05:03:21;;;;;;;9.88;7.00;;;;;;;;;;5122920;27;20063;-73
2023/01/28 05:05:47;;;;;;;10.57;6.47;;;;;;;;;;5118334;27;20614;-73
2023/01/28 05:08:13;;;;;;;9.73;6.47;;;;;;;;;;5112340;27;20048;-72
2023/01/28 05:10:40;;;;;;;9.43;6.68;;;;;;;;;;5106401;27;20712;-73
2023/01/28 05:13:06;;;;;;;9.77;6.53;;;;;;;;;;5126362;27;20098;-72
2023/01/28 05:15:32;;;;;;;9.05;6.03;;;;;;;;;;5125030;27;20055;-72
2023/01/28 05:17:59;;;;;;;7.70;5.60;;;;;;;;;;5115928;27;20528;-73
2023/01/28 05:20:25;;;;;;;10.90;6.03;;;;;;;;;;5105699;27;20086;-69
2023/01/28 05:22:51;;;;;;;8.73;5.78;;;;;;;;;;5118166;27;20058;-73
2023/01/28 05:25:18;;;;;;;9.05;6.10;;;;;;;;;;5115622;27;20051;-71
2023/01/28 05:27:49;;;;;;;9.48;6.70;;;;;;;;;;5128938;27;20623;-72
2023/01/28 05:30:15;;;;;;;9.38;6.47;;;;;;;;;;5107952;27;20125;-72
2023/01/28 05:32:42;;;;;;;8.07;5.63;;;;;;;;;;5118652;27;20979;-72
2023/01/28 05:35:08;;;;;;;8.68;6.53;;;;;;;;;;5124748;27;20046;-73
2023/01/28 05:37:34;;;;;;;9.88;6.55;;;;;;;;;;5125366;27;20139;-73
2023/01/28 05:40:01;;;;;;;8.85;6.13;;;;;;;;;;5125431;27;20052;-70
2023/01/28 05:42:27;;;;;;;9.52;6.47;;;;;;;;;;5120314;27;20580;-76
2023/01/28 05:44:53;;;;;;;9.65;6.10;;;;;;;;;;5105273;27;20396;-73
2023/01/28 05:47:19;;;;;;;10.43;7.10;;;;;;;;;;5115553;27;20060;-73
2023/01/28 05:49:46;;;;;;;10.18;6.47;;;;;;;;;;5107481;27;20055;-72
2023/01/28 05:52:12;;;;;;;8.93;6.35;;;;;;;;;;5110074;27;20048;-72
2023/01/28 05:54:39;;;;;;;9.60;6.45;;;;;;;;;;5106176;27;20430;-73
2023/01/28 05:57:05;;;;;;;9.32;6.15;;;;;;;;;;5114727;27;20047;-72
2023/01/28 05:59:32;;;;;;;9.52;6.20;;;;;;;;;;5115346;27;20048;-72
2023/01/28 06:01:58;;;;;;;9.45;6.18;;;;;;;;;;5108763;27;20121;-73
2023/01/28 06:04:24;;;;;;;9.05;6.32;;;;;;;;;;5112194;27;20564;-72
2023/01/28 06:06:51;;;;;;;9.52;6.70;;;;;;;;;;5121036;27;20063;-73
2023/01/28 06:09:17;;;;;;;8.52;5.88;;;;;;;;;;5105674;27;20101;-71
2023/01/28 06:11:44;;;;;;;10.20;6.38;;;;;;;;;;5109741;27;20044;-72
2023/01/28 06:14:10;;;;;;;9.02;6.28;;;;;;;;;;5113072;27;20044;-71
2023/01/28 06:16:37;;;;;;;9.65;6.28;;;;;;;;;;5105232;27;20044;-70
2023/01/28 06:19:03;;;;;;;9.43;6.40;;;;;;;;;;5119478;27;20051;-72
2023/01/28 06:21:29;;;;;;;9.50;6.43;;;;;;;;;;5115448;27;20052;-72
2023/01/28 06:23:56;;;;;;;8.73;6.22;;;;;;;;;;5105622;27;20053;-73
2023/01/28 06:26:22;;;;;;;10.85;6.88;;;;;;;;;;5116594;27;20048;-70
2023/01/28 06:28:48;;;;;;;9.30;6.88;;;;;;;;;;5127304;27;20042;-73
2023/01/28 06:31:15;;;;;;;11.70;6.65;;;;;;;;;;5128249;27;20056;-69
2023/01/28 06:33:41;;;;;;;9.63;6.63;;;;;;;;;;5119206;27;20079;-73
2023/01/28 06:36:08;;;;;;;10.15;6.85;;;;;;;;;;5107814;27;20055;-72
2023/01/28 06:38:35;;;;;;;8.48;5.88;;;;;;;;;;5111213;27;20055;-72
2023/01/28 06:41:01;;;;;;;8.27;6.20;;;;;;;;;;5116133;27;20525;-70
2023/01/28 06:43:29;;;;;;;10.45;6.25;;;;;;;;;;5116260;27;20135;-72
2023/01/28 06:45:56;;;;;;;12.10;6.72;;;;;;;;;;5090030;27;20061;-73
2023/01/28 06:48:23;;;;;;;10.38;7.18;;;;;;;;;;5108101;27;20047;-71
2023/01/28 06:50:49;;;;;;;10.73;7.25;;;;;;;;;;5126358;27;20082;-73
2023/01/28 06:53:17;;;;;;;10.55;7.43;;;;;;;;;;5116259;27;20058;-71
2023/01/28 06:55:43;;;;;;;10.38;6.82;;;;;;;;;;5120000;27;20055;-71
2023/01/28 06:58:09;;;;;;;8.65;5.88;;;;;;;;;;5128556;27;20094;-72
2023/01/28 07:00:36;;;;;;;11.60;7.82;;;;;;;;;;5127419;27;20136;-73
2023/01/28 07:03:03;;;;;;;11.15;7.47;;;;;;;;;;5120636;27;20052;-72
2023/01/28 07:05:29;;;;;;;9.95;6.95;;;;;;;;;;5112767;27;21029;-70
2023/01/28 07:07:56;;;;;;;9.77;7.22;;;;;;;;;;5125730;27;20567;-73
2023/01/28 07:10:22;;;;;;;9.45;6.57;;;;;;;;;;5128753;27;20139;-72
2023/01/28 07:12:48;;;;;;;13.05;8.18;;;;;;;;;;5121024;27;20101;-70
2023/01/28 07:15:15;;;;;;;10.73;7.03;;;;;;;;;;5120603;27;20048;-73
2023/01/28 07:17:41;;;;;;;10.25;6.72;;;;;;;;;;5116436;27;20563;-73
2023/01/28 07:20:09;;;;;;;11.32;7.25;;;;;;;;;;5142262;27;20560;-73
2023/01/28 07:22:38;;;;;;;11.23;7.60;;;;;;;;;;5113835;27;20051;-71
2023/01/28 07:25:05;;;;;;;10.93;7.55;;;;;;;;;;5107202;27;20052;-71
2023/01/28 07:27:31;;;;;;;10.80;7.05;;;;;;;;;;5095902;27;20142;-73
2023/01/28 07:29:57;;;;;;;10.18;7.20;;;;;;;;;;5116834;27;20543;-70
2023/01/28 07:32:26;;;;;;;10.00;6.72;;;;;;;;;;5121977;27;20047;-73
2023/01/28 07:34:52;;;;;;;10.60;7.18;;;;;;;;;;5124913;27;20527;-71
2023/01/28 07:37:19;;;;;;;12.02;7.38;;;;;;;;;;5110924;27;20498;-72
2023/01/28 07:39:46;;;;;;;9.68;6.70;;;;;;;;;;5115231;27;20051;-72
2023/01/28 07:42:12;;;;;;;11.23;7.63;;;;;;;;;;5123506;27;20063;-70
2023/01/28 07:44:38;;;;;;;11.10;7.40;;;;;;;;;;5112185;27;20044;-73
2023/01/28 07:47:05;;;;;;;10.85;7.30;;;;;;;;;;5107416;27;20139;-70
2023/01/28 07:49:33;;;;;;;11.80;7.70;;;;;;;;;;5118418;27;20130;-71
2023/01/28 07:51:59;;;;;;;15.70;8.10;;;;;;;;;;5126754;27;20151;-73
2023/01/28 07:54:25;;;;;;;11.48;7.78;;;;;;;;;;5121012;27;20052;-70
2023/01/28 07:56:52;;;;;;;13.95;7.97;;;;;;;;;;5096118;27;20055;-72
2023/01/28 07:59:18;;;;;;;12.52;8.18;;;;;;;;;;5109638;27;20079;-71
2023/01/28 08:01:44;;;;;;;11.07;7.50;;;;;;;;;;5126825;27;20052;-70
2023/01/28 08:04:11;;;;;;;12.00;7.32;;;;;;;;;;5122996;27;20052;-73
2023/01/28 08:06:37;;;;;;;10.00;6.95;;;;;;;;;;5123227;27;20629;-72
2023/01/28 08:09:05;;;;;;;10.73;7.25;;;;;;;;;;5124522;27;20216;-71
2023/01/28 08:11:31;;;;;;;11.68;7.60;;;;;;;;;;5106545;27;20059;-72
2023/01/28 08:13:59;;;;;;;10.70;7.45;;;;;;;;;;5116212;27;20054;-72
2023/01/28 08:16:26;;;;;;;12.63;7.32;;;;;;;;;;5110341;27;20048;-69
2023/01/28 08:18:52;;;;;;;11.93;7.85;;;;;;;;;;5125854;27;20044;-73
2023/01/28 08:21:19;;;;;;;12.25;7.90;;;;;;;;;;5110151;27;20482;-69
2023/01/28 08:23:45;;;;;;;11.20;7.50;;;;;;;;;;5126244;27;20052;-71
2023/01/28 08:26:12;;;;;;;13.05;7.43;;;;;;;;;;5118668;27;20048;-74
2023/01/28 08:28:38;;;;;;;11.85;7.18;;;;;;;;;;5117664;27;21276;-69
2023/01/28 08:31:04;;;;;;;14.50;7.40;;;;;;;;;;5109983;27;20059;-72
2023/01/28 08:33:31;;;;;;;13.13;7.80;;;;;;;;;;5114575;27;20134;-75
2023/01/28 08:36:01;;;;;;;13.18;8.25;;;;;;;;;;5113162;27;20686;-71
2023/01/28 08:38:27;;;;;;;10.45;6.70;;;;;;;;;;5119057;27;20062;-73
2023/01/28 08:40:54;;;;;;;11.50;7.65;;;;;;;;;;5119855;27;20521;-72
2023/01/28 08:43:21;;;;;;;15.10;8.52;;;;;;;;;;5126464;27;20138;-72
2023/01/28 08:45:47;;;;;;;13.00;7.80;;;;;;;;;;5125309;27;20265;-71
2023/01/28 08:48:14;;;;;;;13.40;8.52;;;;;;;;;;5115195;27;20062;-72
2023/01/28 08:50:41;;;;;;;11.30;8.07;;;;;;;;;;5121393;27;20083;-71
2023/01/28 08:53:14;;;;;;;12.18;7.50;;;;;;;;;;5123021;27;20063;-72
2023/01/28 08:55:40;;;;;;;12.68;8.10;;;;;;;;;;5107099;27;20056;-70
2023/01/28 08:58:10;;;;;;;11.40;7.07;;;;;;;;;;5109868;27;20588;-70
2023/01/28 09:00:36;;;;;;;12.45;7.28;;;;;;;;;;5118973;27;20063;-71
2023/01/28 09:03:02;;;;;;;10.57;7.70;;;;;;;;;;5119917;27;20051;-73
2023/01/28 09:05:32;;;;;;;9.40;6.75;;;;;;;;;;5111420;27;20099;-71
2023/01/28 09:08:02;;;;;;;12.48;8.30;;;;;;;;;;5108909;27;20052;-72
2023/01/28 09:10:28;;;;;;;16.27;7.88;;;;;;;;;;5109644;27;20058;-70
2023/01/28 09:12:55;;;;;;;13.52;8.05;;;;;;;;;;5112818;27;20522;-74
2023/01/28 09:15:21;;;;;;;12.25;7.72;;;;;;;;;;5123255;27;20162;-72
2023/01/28 09:17:47;;;;;;;12.55;8.55;;;;;;;;;;5111614;27;20052;-73
2023/01/28 09:20:14;;;;;;;11.95;7.50;;;;;;;;;;5114177;27;20048;-72
2023/01/28 09:22:41;;;;;;;11.60;8.13;;;;;;;;;;5119695;27;20051;-73
2023/01/28 09:25:07;;;;;;;25.88;8.88;;;;;;;;;;5105045;27;20070;-72
2023/01/28 09:27:34;;;;;;;14.88;7.95;;;;;;;;;;5111347;27;20059;-73
2023/01/28 09:30:00;;;;;;;12.02;7.78;;;;;;;;;;5114605;27;20090;-70
2023/01/28 09:32:26;;;;;;;10.88;6.82;;;;;;;;;;5125934;27;20498;-72
2023/01/28 09:34:52;;;;;;;10.10;6.68;;;;;;;;;;5110713;27;20503;-72
2023/01/28 09:37:19;;;;;;;9.35;6.40;;;;;;;;;;5118376;27;20532;-72
2023/01/28 09:39:45;;;;;;;10.00;7.05;;;;;;;;;;5125581;27;20087;-70
2023/01/28 09:42:30;;;;;;;9.45;6.45;;;;;;;;;;5112703;27;20051;-69
2023/01/28 09:45:15;;;;;;;10.40;6.35;;;;;;;;;;5123728;27;20052;-73
2023/01/28 09:48:08;;;;;;;10.05;6.57;;;;;;;;;;5111695;27;20059;-73
2023/01/28 09:50:37;;;;;;;10.13;6.38;;;;;;;;;;5092212;27;20051;-73
2023/01/28 09:53:06;;;;;;;10.52;6.60;;;;;;;;;;5111944;27;20662;-73
2023/01/28 09:55:32;;;;;;;9.68;6.30;;;;;;;;;;5113697;27;20140;-73
2023/01/28 09:57:59;;;;;;;9.25;6.60;;;;;;;;;;5121343;27;20052;-72
2023/01/28 10:00:38;;;;;;;9.55;6.05;;;;;;;;;;5124709;27;20081;-69
2023/01/28 10:03:21;;;;;;;8.07;5.43;;;;;;;;;;5124973;27;20135;-71
2023/01/28 10:06:06;;;;;;;10.25;6.13;;;;;;;;;;5126566;27;20511;-72
2023/01/28 10:08:49;;;;;;;12.82;6.60;;;;;;;;;;5116624;27;20068;-70
2023/01/28 10:11:28;;;;;;;8.27;5.57;;;;;;;;;;5114784;27;20052;-69
2023/01/28 10:13:58;;;;;;;8.98;5.85;;;;;;;;;;5114159;27;20129;-69
2023/01/28 10:16:36;;;;;;;8.88;5.85;;;;;;;;;;5124256;27;20521;-68
2023/01/28 10:19:17;;;;;;;9.45;5.80;;;;;;;;;;5108045;27;20170;-69
2023/01/28 10:21:57;;;;;;;8.82;5.75;;;;;;;;;;5091096;27;20571;-76
2023/01/28 10:24:30;;;;;;;8.68;5.57;;;;;;;;;;5124528;27;20058;-68
2023/01/28 10:26:57;;;;;;;8.43;4.70;;;;;;;;;;5129373;27;20109;-72
2023/01/28 10:29:26;;;;;;;7.70;4.25;;;;;;;;;;5127439;27;21124;-72
2023/01/28 10:31:53;;;;;;;8.15;5.20;;;;;;;;;;5115561;27;20135;-71
2023/01/28 10:34:21;;;;;;;7.32;4.90;;;;;;;;;;5108233;27;20075;-71
2023/01/28 10:36:48;;;;;;;9.23;5.07;;;;;;;;;;5114059;27;20528;-71
2023/01/28 10:39:15;;;;;;;11.05;5.47;;;;;;;;;;5112638;27;20243;-69
2023/01/28 10:41:41;;;;;;;8.63;4.97;;;;;;;;;;5112053;27;20055;-71
2023/01/28 10:44:34;;;;;;;5.60;4.20;;;;;;;;;;5122701;27;20052;-70
2023/01/28 10:47:04;;;;;;;7.18;4.93;;;;;;;;;;5115767;27;20052;-71
2023/01/28 10:49:32;;;;;;;7.40;4.88;;;;;;;;;;5116540;27;20045;-72
2023/01/28 10:52:09;;;;;;;7.60;5.07;;;;;;;;;;5116776;27;20436;-71
2023/01/28 10:54:35;;;;;;;7.00;4.53;;;;;;;;;;5118185;27;20074;-73
2023/01/28 10:57:03;;;;;;;6.38;4.35;;;;;;;;;;5128154;27;20058;-73
2023/01/28 10:59:40;;;;;;;11.27;4.97;;;;;;;;;;5127983;27;20512;-71
2023/01/28 11:02:21;;;;;;;8.90;5.10;;;;;;;;;;5124075;27;20218;-73
2023/01/28 11:04:59;;;;;;;6.35;4.28;;;;;;;;;;5109124;27;20062;-73
2023/01/28 11:07:25;;;;;;;6.65;3.78;;;;;;;;;;5118917;27;20681;-69
2023/01/28 11:09:51;;;;;;;6.75;3.90;;;;;;;;;;5124957;27;20541;-74
2023/01/28 11:12:29;;;;;;;7.55;4.28;;;;;;;;;;5127321;27;20056;-69
2023/01/28 11:14:55;;;;;;;6.13;4.25;;;;;;;;;;5126174;27;20552;-72
2023/01/28 11:17:25;;;;;;;6.38;3.70;;;;;;;;;;5126406;27;20048;-74
2023/01/28 11:19:53;;;;;;;6.93;3.60;;;;;;;;;;5115225;27;20055;-75
2023/01/28 11:22:29;;;;;;;7.80;3.45;;;;;;;;;;5109951;27;20052;-73
2023/01/28 11:24:55;;;;;;;4.50;3.35;;;;;;;;;;5127999;27;20376;-74
2023/01/28 11:27:25;;;;;;;8.38;4.03;;;;;;;;;;5127963;27;20079;-70
2023/01/28 11:29:53;;;;;;;4.75;3.50;;;;;;;;;;5127914;27;20054;-74
2023/01/28 11:32:23;;;;;;;8.02;4.53;;;;;;;;;;5126249;27;20525;-72
2023/01/28 11:34:50;;;;;;;8.63;4.47;;;;;;;;;;5127581;27;20513;-73
2023/01/28 11:37:19;;;;;;;6.97;3.95;;;;;;;;;;5128066;27;20508;-70
2023/01/28 11:39:46;;;;;;;5.43;3.08;;;;;;;;;;5127435;27;20043;-73
2023/01/28 11:42:20;;;;;;;7.95;4.32;;;;;;;;;;5127638;27;20059;-72
2023/01/28 11:44:47;;;;;;;8.00;4.32;;;;;;;;;;5126525;27;20586;-73
2023/01/28 11:47:16;;;;;;;5.57;3.70;;;;;;;;;;5127163;27;20051;-73
2023/01/28 11:49:53;;;;;;;6.55;3.90;;;;;;;;;;5127292;27;20510;-73
2023/01/28 11:52:30;;;;;;;3.78;3.28;;;;;;;;;;5127184;27;20058;-70
2023/01/28 11:55:23;;;;;;;5.47;3.63;;;;;;;;;;5112383;27;20055;-70
2023/01/28 11:57:50;;;;;;;4.65;3.63;;;;;;;;;;5126766;27;20054;-73
2023/01/28 12:00:30;;;;;;;5.88;3.28;;;;;;;;;;5106925;28;20063;-71
2023/01/28 12:03:08;;;;;;;6.63;3.47;;;;;;;;;;5106317;28;20497;-73
2023/01/28 12:05:37;;;;;;;6.90;3.70;;;;;;;;;;5106434;28;20048;-73
2023/01/28 12:08:19;;;;;;;4.53;2.53;;;;;;;;;;5111484;27;20051;-73
2023/01/28 12:10:55;;;;;;;2.30;1.98;;;;;;;;;;5127713;27;20533;-73
2023/01/28 12:13:27;;;;;;;5.47;3.13;;;;;;;;;;5127025;27;20058;-72
2023/01/28 12:16:00;;;;;;;2.90;2.13;;;;;;;;;;5108320;27;20507;-73
2023/01/28 12:18:26;;;;;;;5.35;2.58;;;;;;;;;;5126997;27;20097;-72
2023/01/28 12:21:08;;;;;;;3.83;2.55;;;;;;;;;;5126470;27;20058;-73
2023/01/28 12:23:37;;;;;;;5.72;2.83;;;;;;;;;;5126512;27;20122;-72
2023/01/28 12:26:07;;;;;;;7.68;2.33;;;;;;;;;;5125766;27;20059;-72
2023/01/28 12:28:38;;;;;;;4.40;2.88;;;;;;;;;;5126378;27;20484;-72
2023/01/28 12:31:11;;;;;;;4.97;3.20;;;;;;;;;;5126515;27;20078;-73
2023/01/28 12:33:40;;;;;;;4.68;3.13;;;;;;;;;;5125472;27;20537;-73
2023/01/28 12:36:18;;;;;;;6.38;2.88;;;;;;;;;;5111518;27;20052;-72
2023/01/28 12:38:53;;;;;;;5.40;3.47;;;;;;;;;;5106165;28;20048;-74
2023/01/28 12:41:22;;;;;;;5.17;3.03;;;;;;;;;;5106516;28;20060;-72
2023/01/28 12:43:54;;;;;;;5.85;3.70;;;;;;;;;;5106007;28;20052;-72
2023/01/28 12:46:20;;;;;;;6.53;4.28;;;;;;;;;;5106155;28;20056;-73
2023/01/28 12:48:50;;;;;;;5.57;3.75;;;;;;;;;;5105360;28;20044;-69
2023/01/28 12:51:21;;;;;;;5.03;4.32;;;;;;;;;;5109660;27;20052;-74
2023/01/28 12:53:54;;;;;;;5.65;3.67;;;;;;;;;;5105723;28;20148;-72
2023/01/28 12:56:41;;;;;;;8.68;3.97;;;;;;;;;;5106221;28;20058;-72
2023/01/28 12:59:07;;;;;;;5.28;3.42;;;;;;;;;;5105082;28;20131;-72
2023/01/28 13:01:37;;;;;;;4.85;3.67;;;;;;;;;;5106466;27;20052;-72
2023/01/28 13:04:22;;;;;;;4.85;3.10;;;;;;;;;;5126280;27;20134;-72
2023/01/28 13:07:12;;;;;;;8.05;3.70;;;;;;;;;;5126562;27;20368;-72
2023/01/28 13:09:42;;;;;;;7.55;3.17;;;;;;;;;;5117066;27;20056;-72
2023/01/28 13:12:10;;;;;;;6.45;3.50;;;;;;;;;;5126354;27;20443;-72
2023/01/28 13:14:39;;;;;;;4.28;3.15;;;;;;;;;;5125882;27;20498;-73
2023/01/28 13:17:09;;;;;;;5.90;3.22;;;;;;;;;;5107596;27;20545;-75
2023/01/28 13:19:38;;;;;;;4.13;2.88;;;;;;;;;;5105308;28;20477;-74
2023/01/28 13:22:30;;;;;;;5.10;3.10;;;;;;;;;;5105542;28;20091;-71
2023/01/28 13:25:10;;;;;;;4.82;3.17;;;;;;;;;;5102520;28;20051;-72
2023/01/28 13:27:36;;;;;;;6.40;3.30;;;;;;;;;;5104739;28;20047;-72
2023/01/28 13:30:06;;;;;;;4.28;2.80;;;;;;;;;;5105357;27;20052;-72
2023/01/28 13:32:33;;;;;;;4.70;2.90;;;;;;;;;;5104744;28;20059;-73
2023/01/28 13:35:06;;;;;;;4.00;2.65;;;;;;;;;;5105350;28;20056;-73
2023/01/28 13:37:43;;;;;;;4.97;2.80;;;;;;;;;;5107677;27;20055;-71
2023/01/28 13:40:12;;;;;;;5.93;3.10;;;;;;;;;;5109188;27;20166;-72
2023/01/28 13:42:39;;;;;;;4.97;3.33;;;;;;;;;;5108501;28;20052;-71
2023/01/28 13:45:19;;;;;;;5.40;2.95;;;;;;;;;;5108498;28;20048;-72
2023/01/28 13:47:53;;;;;;;7.85;2.88;;;;;;;;;;5108763;27;20048;-72
2023/01/28 13:50:24;;;;;;;2.80;2.13;;;;;;;;;;5108727;28;20052;-71
2023/01/28 13:52:53;;;;;;;8.75;2.97;;;;;;;;;;5109249;28;20060;-71
2023/01/28 13:55:21;;;;;;;3.70;2.25;;;;;;;;;;5108470;28;20060;-71
2023/01/28 13:58:23;;;;;;;3.47;2.70;;;;;;;;;;5092749;28;20442;-72
2023/01/28 14:01:02;;;;;;;3.97;2.55;;;;;;;;;;5108740;28;20048;-70
2023/01/28 14:03:37;;;;;;;5.13;2.65;;;;;;;;;;5128024;27;20401;-71
2023/01/28 14:06:12;;;;;;;5.30;2.17;;;;;;;;;;5129367;27;20059;-72
2023/01/28 14:08:44;;;;;;;4.20;2.47;;;;;;;;;;5128865;27;20056;-70
2023/01/28 14:11:17;;;;;;;4.30;2.75;;;;;;;;;;5128652;27;20079;-71
2023/01/28 14:13:53;;;;;;;5.57;2.33;;;;;;;;;;5125508;27;20127;-71
2023/01/28 14:16:40;;;;;;;4.60;1.98;;;;;;;;;;5108537;28;20094;-70
2023/01/28 14:19:08;;;;;;;4.93;2.40;;;;;;;;;;5107352;28;20062;-70
2023/01/28 14:21:35;;;;;;;2.83;2.10;;;;;;;;;;5107776;28;20079;-71
2023/01/28 14:24:02;;;;;;;2.53;2.10;;;;;;;;;;5108097;28;20109;-72
2023/01/28 14:26:34;;;;;;;4.88;2.00;;;;;;;;;;5107410;27;20490;-71
2023/01/28 14:29:24;;;;;;;7.22;2.40;;;;;;;;;;5128758;27;20582;-74
2023/01/28 14:31:51;;;;;;;3.03;1.90;;;;;;;;;;5119789;27;20043;-72
2023/01/28 14:34:23;;;;;;;4.43;2.10;;;;;;;;;;5128935;27;20109;-72
2023/01/28 14:36:50;;;;;;;5.03;2.10;;;;;;;;;;5128747;27;20476;-71
2023/01/28 14:39:17;;;;;;;4.28;2.70;;;;;;;;;;5129174;27;20527;-72
2023/01/28 14:41:44;;;;;;;3.30;2.38;;;;;;;;;;5139096;27;20043;-72
2023/01/28 14:44:17;;;;;;;6.30;2.58;;;;;;;;;;5149632;27;20505;-72
2023/01/28 14:46:56;;;;;;;2.70;1.90;;;;;;;;;;5149602;27;20098;-73
2023/01/28 14:49:34;;;;;;;3.97;2.25;;;;;;;;;;5147211;27;20059;-70
2023/01/28 14:52:19;;;;;;;2.97;1.90;;;;;;;;;;5128852;27;20052;-71
2023/01/28 14:54:54;;;;;;;3.38;1.90;;;;;;;;;;5127968;27;20047;-71
2023/01/28 14:57:39;;;;;;;4.40;2.00;;;;;;;;;;5128379;27;20052;-71
2023/01/28 15:00:25;;;;;;;2.90;2.17;;;;;;;;;;5128598;27;20458;-71
2023/01/28 15:02:52;;;;;;;5.85;2.60;;;;;;;;;;5108115;27;20482;-70
2023/01/28 15:05:23;;;;;;;6.85;2.65;;;;;;;;;;5107735;28;20536;-72
2023/01/28 15:07:50;;;;;;;7.47;2.47;;;;;;;;;;5092798;27;20070;-71
2023/01/28 15:10:18;;;;;;;3.22;2.25;;;;;;;;;;5128235;27;20051;-72
2023/01/28 15:12:49;;;;;;;6.60;2.80;;;;;;;;;;5128136;27;20502;-70
2023/01/28 15:15:35;;;;;;;3.88;2.40;;;;;;;;;;5127327;27;20047;-71
2023/01/28 15:18:11;;;;;;;3.20;2.00;;;;;;;;;;5128196;27;20075;-72
2023/01/28 15:20:37;;;;;;;;;;;;;;;;;;5127992;27;20056;-71
2023/01/28 15:23:06;;;;;;;5.35;2.83;;;;;;;;;;5126854;27;44363;-71